Time;durP1;ratioP1;P1;durP2;ratioP2;P2;SDS_P1;SDS_P2;PMS_P1;PMS_P2;Temp;Humidity;BMP_temperature;BMP_pressure;BME280_temperature;BME280_humidity;BME280_pressure;Samples;Min_cycle;Max_cycle;Signal;HPM_P1;HPM_P2
2022/07/28 00:02:03;;;;;;;1.50;1.02;;;;;;;16.03;70.14;102156.59;4947937;29;20035;-61
2022/07/28 00:04:29;;;;;;;3.08;1.05;;;;;;;16.06;70.29;102163.59;4947107;28;20074;-60
2022/07/28 00:06:54;;;;;;;4.15;1.13;;;;;;;16.00;69.82;102160.25;4948086;29;20102;-61
2022/07/28 00:09:19;;;;;;;5.72;1.10;;;;;;;16.00;69.82;102157.59;4946832;29;20055;-60
2022/07/28 00:11:45;;;;;;;5.07;1.17;;;;;;;15.85;70.89;102151.00;4947214;29;20117;-62
2022/07/28 00:14:10;;;;;;;2.65;0.93;;;;;;;15.83;70.77;102144.84;4947420;29;20035;-61
2022/07/28 00:16:36;;;;;;;3.58;1.20;;;;;;;15.80;70.61;102144.94;4947793;29;20740;-60
2022/07/28 00:19:02;;;;;;;5.38;1.30;;;;;;;15.76;70.80;102140.69;4947687;29;20023;-60
2022/07/28 00:21:27;;;;;;;7.60;1.38;;;;;;;15.71;70.81;102151.47;4946135;29;20475;-60
2022/07/28 00:23:52;;;;;;;4.90;1.20;;;;;;;15.75;70.49;102138.94;4947262;28;20378;-62
2022/07/28 00:26:18;;;;;;;2.15;0.90;;;;;;;15.72;71.03;102144.38;4946872;29;20031;-62
2022/07/28 00:28:43;;;;;;;6.13;1.30;;;;;;;15.66;70.98;102148.13;4946892;28;20149;-62
2022/07/28 00:31:08;;;;;;;1.35;1.20;;;;;;;15.62;71.17;102155.31;4947569;29;20108;-60
2022/07/28 00:33:34;;;;;;;4.70;1.42;;;;;;;15.59;71.38;102150.09;4946573;29;20031;-61
2022/07/28 00:35:59;;;;;;;2.50;1.30;;;;;;;15.43;72.32;102151.53;4946744;29;20023;-61
2022/07/28 00:38:24;;;;;;;2.78;1.20;;;;;;;15.40;72.18;102148.06;4946921;29;20049;-62
2022/07/28 00:43:34;;;;;;;4.20;1.20;;;;;;;15.40;72.48;102142.78;4947650;29;20961;-60
2022/07/28 00:45:59;;;;;;;2.72;1.13;;;;;;;15.36;72.13;102146.44;4947280;29;20124;-61
2022/07/28 00:48:24;;;;;;;1.33;1.15;;;;;;;15.34;72.19;102142.09;4946938;29;20031;-61
2022/07/28 00:50:50;;;;;;;1.23;1.10;;;;;;;15.30;72.67;102141.34;4946976;29;20030;-60
2022/07/28 00:53:16;;;;;;;3.40;1.23;;;;;;;15.34;72.39;102142.97;4946227;28;20075;-61
2022/07/28 00:55:41;;;;;;;6.40;1.48;;;;;;;15.27;72.95;102136.13;4945759;29;20039;-60
2022/07/28 00:58:06;;;;;;;4.07;1.20;;;;;;;15.29;72.82;102147.53;4945908;29;20031;-61
2022/07/28 01:00:32;;;;;;;3.03;1.40;;;;;;;15.23;73.19;102140.66;4929263;29;20496;-61
2022/07/28 01:02:58;;;;;;;4.32;1.10;;;;;;;15.21;73.42;102139.84;4946711;29;20035;-62
2022/07/28 01:05:24;;;;;;;3.17;1.40;;;;;;;15.24;73.25;102136.22;4945422;28;20560;-60
2022/07/28 01:08:06;;;;;;;3.03;1.20;;;;;;;15.14;73.35;102133.88;4929568;29;20159;-60
2022/07/28 01:10:35;;;;;;;1.48;1.05;;;;;;;15.20;73.15;102137.25;4960585;23;20476;-68
2022/07/28 01:13:10;;;;;;;4.25;1.45;;;;;;;15.15;73.59;102135.59;4964802;28;20054;-68
2022/07/28 01:15:39;;;;;;;4.97;1.30;;;;;;;15.23;73.29;102134.50;4948704;28;20039;-68
2022/07/28 01:18:14;;;;;;;1.40;1.10;;;;;;;15.11;73.74;102130.47;4965536;28;20027;-68
2022/07/28 01:20:49;;;;;;;5.18;1.40;;;;;;;15.13;73.78;102129.47;4964938;28;20037;-69
2022/07/28 01:23:32;;;;;;;4.50;1.40;;;;;;;15.13;73.95;102134.78;4964133;28;20067;-66
2022/07/28 01:26:40;;;;;;;4.57;1.27;;;;;;;15.16;73.66;102129.38;4965295;28;20030;-68
2022/07/28 01:29:39;;;;;;;5.50;1.33;;;;;;;15.22;73.84;102127.44;4966412;28;20469;-69
2022/07/28 01:32:09;;;;;;;5.50;1.30;;;;;;;15.19;73.97;102127.53;4966407;28;20023;-69
2022/07/28 01:34:49;;;;;;;1.63;0.90;;;;;;;15.09;74.13;102122.53;4948796;28;20031;-68
2022/07/28 01:37:19;;;;;;;4.22;1.30;;;;;;;15.07;74.16;102120.84;4970008;28;20034;-69
2022/07/28 01:39:45;;;;;;;5.53;1.60;;;;;;;15.04;74.75;102121.81;4952010;28;20559;-68
2022/07/28 01:42:12;;;;;;;3.65;1.45;;;;;;;15.09;74.73;102117.25;4950730;28;20474;-67
2022/07/28 01:44:41;;;;;;;4.55;1.45;;;;;;;15.02;74.94;102123.66;4970197;28;20101;-66
2022/07/28 01:47:08;;;;;;;4.15;1.30;;;;;;;15.00;75.04;102118.41;4952376;28;20103;-69
2022/07/28 01:49:35;;;;;;;4.28;1.70;;;;;;;15.00;75.38;102118.41;4952753;28;20125;-68
2022/07/28 01:52:02;;;;;;;5.25;1.50;;;;;;;15.06;74.91;102106.72;4968496;28;20073;-69
2022/07/28 01:54:29;;;;;;;3.65;1.65;;;;;;;15.07;75.49;102108.44;4952160;28;20113;-67
2022/07/28 01:56:55;;;;;;;5.93;1.58;;;;;;;15.02;75.39;102110.41;4968996;28;20385;-67
2022/07/28 01:59:22;;;;;;;4.28;1.52;;;;;;;15.07;75.28;102103.13;4968985;28;20058;-68
2022/07/28 02:01:49;;;;;;;2.13;1.45;;;;;;;14.91;75.92;102108.06;4952475;28;20058;-69
2022/07/28 02:04:17;;;;;;;2.00;1.10;;;;;;;14.96;75.75;102107.94;4968287;28;20329;-69
2022/07/28 02:06:44;;;;;;;4.95;1.67;;;;;;;15.00;75.26;102101.59;4965897;28;20026;-68
2022/07/28 02:09:10;;;;;;;3.42;1.60;;;;;;;15.02;75.11;102100.63;4968289;28;20065;-67
2022/07/28 02:11:39;;;;;;;6.45;1.70;;;;;;;15.06;74.88;102096.09;4967437;28;20058;-69
2022/07/28 02:14:15;;;;;;;3.15;1.67;;;;;;;15.08;74.90;102102.19;4951898;28;20031;-68
2022/07/28 02:16:43;;;;;;;3.95;1.20;;;;;;;15.05;75.05;102091.69;4969042;28;20031;-68
2022/07/28 02:19:10;;;;;;;4.83;1.53;;;;;;;15.07;74.68;102092.50;4951874;28;20440;-67
2022/07/28 02:21:36;;;;;;;4.97;1.52;;;;;;;15.01;75.22;102093.59;4968320;28;20019;-68
2022/07/28 02:24:02;;;;;;;3.92;1.50;;;;;;;15.10;75.05;102096.84;4967903;28;20121;-69
2022/07/28 02:26:31;;;;;;;5.40;1.52;;;;;;;15.12;74.81;102082.63;4968420;28;20154;-69
2022/07/28 02:28:59;;;;;;;5.97;1.75;;;;;;;15.04;74.70;102087.31;4966778;28;20557;-69
2022/07/28 02:31:29;;;;;;;3.22;1.50;;;;;;;15.11;74.56;102088.00;4932499;28;20027;-68
2022/07/28 02:33:58;;;;;;;2.75;1.33;;;;;;;15.02;74.74;102081.19;4947220;29;20045;-69
2022/07/28 02:36:33;;;;;;;3.50;1.60;;;;;;;15.03;74.86;102085.56;4930896;29;20027;-69
2022/07/28 02:39:02;;;;;;;5.30;1.52;;;;;;;14.99;75.01;102084.78;4947827;29;20471;-69
2022/07/28 02:41:28;;;;;;;3.17;1.52;;;;;;;14.98;75.26;102087.50;4966567;28;20112;-70
2022/07/28 02:43:59;;;;;;;4.30;1.67;;;;;;;14.99;75.35;102089.25;4968073;28;20482;-68
2022/07/28 02:46:26;;;;;;;7.50;1.60;;;;;;;15.02;74.82;102091.81;4949671;28;20062;-68
2022/07/28 02:48:58;;;;;;;3.72;1.20;;;;;;;15.00;74.91;102093.63;4951209;28;20027;-69
2022/07/28 02:51:26;;;;;;;4.68;1.63;;;;;;;14.97;74.94;102093.75;4931611;29;20127;-67
2022/07/28 02:53:52;;;;;;;7.95;1.42;;;;;;;14.91;75.13;102090.34;4948965;29;20027;-69
2022/07/28 02:56:17;;;;;;;3.63;1.40;;;;;;;14.94;75.13;102091.19;4946005;28;20390;-68
2022/07/28 02:58:43;;;;;;;6.78;1.48;;;;;;;14.87;75.81;102082.56;4949361;29;20135;-69
2022/07/28 03:01:09;;;;;;;2.08;1.20;;;;;;;14.91;75.61;102087.69;4947744;29;20015;-68
2022/07/28 03:03:35;;;;;;;2.55;1.45;;;;;;;14.84;75.43;102086.16;4948124;29;20038;-67
2022/07/28 03:06:00;;;;;;;7.03;1.40;;;;;;;14.79;75.83;102088.09;4949297;29;20046;-69
2022/07/28 03:08:26;;;;;;;5.82;1.67;;;;;;;14.78;75.81;102086.38;4931700;29;20034;-67
2022/07/28 03:11:08;;;;;;;6.22;1.70;;;;;;;14.78;75.86;102086.38;4943739;29;20067;-67
2022/07/28 03:13:33;;;;;;;4.30;1.30;;;;;;;14.77;75.70;102092.56;4938259;28;20039;-69
2022/07/28 03:15:59;;;;;;;4.13;1.20;;;;;;;14.75;75.87;102084.63;4948987;28;20098;-69
2022/07/28 03:18:26;;;;;;;2.08;1.40;;;;;;;14.72;76.18;102091.84;4962928;28;20030;-68
2022/07/28 03:20:51;;;;;;;4.75;1.48;;;;;;;14.64;76.46;102094.72;4948751;29;20094;-70
2022/07/28 03:23:18;;;;;;;4.68;1.38;;;;;;;14.64;76.25;102085.00;4948566;29;20752;-67
2022/07/28 03:25:46;;;;;;;7.72;1.83;;;;;;;14.62;76.53;102089.47;4963317;28;20131;-68
2022/07/28 03:28:18;;;;;;;4.07;1.35;;;;;;;14.55;76.79;102087.94;4947586;29;20035;-68
2022/07/28 03:30:51;;;;;;;6.95;1.70;;;;;;;14.56;76.92;102088.78;4948563;28;20363;-68
2022/07/28 03:33:17;;;;;;;3.92;1.48;;;;;;;14.47;77.37;102092.56;4948640;28;20023;-68
2022/07/28 03:35:47;;;;;;;2.47;1.40;;;;;;;14.50;77.15;102092.50;4947539;29;20054;-71
2022/07/28 03:38:14;;;;;;;5.22;2.08;;;;;;;14.44;77.19;102090.91;4945643;28;20087;-67
2022/07/28 03:40:41;;;;;;;6.90;1.40;;;;;;;14.45;77.21;102091.78;4946678;29;20051;-68
2022/07/28 03:43:09;;;;;;;2.58;1.25;;;;;;;14.40;77.44;102092.78;4946166;29;20027;-67
2022/07/28 03:45:35;;;;;;;3.47;1.38;;;;;;;14.34;77.75;102092.09;4948884;28;20685;-61
2022/07/28 03:48:00;;;;;;;2.20;1.45;;;;;;;14.34;77.35;102094.75;4948232;28;20055;-67
2022/07/28 03:50:27;;;;;;;9.00;1.67;;;;;;;14.30;77.59;102093.94;4948081;28;20110;-64
2022/07/28 03:52:53;;;;;;;4.55;1.60;;;;;;;14.28;77.56;102098.44;4947269;29;20030;-65
2022/07/28 03:55:19;;;;;;;3.92;1.50;;;;;;;14.24;77.64;102097.66;4947354;28;20035;-65
2022/07/28 03:57:45;;;;;;;2.85;1.33;;;;;;;14.25;77.50;102101.19;4946367;28;20075;-64
2022/07/28 04:00:11;;;;;;;5.57;1.40;;;;;;;14.23;77.82;102103.00;4946547;28;20038;-64
2022/07/28 04:02:37;;;;;;;4.82;1.50;;;;;;;14.26;77.63;102103.78;4948475;28;20035;-66
2022/07/28 04:05:03;;;;;;;6.93;1.60;;;;;;;14.27;77.56;102104.69;4947246;28;20051;-66
2022/07/28 04:07:28;;;;;;;4.55;1.50;;;;;;;14.24;77.36;102096.81;4945677;28;20494;-65
2022/07/28 04:09:53;;;;;;;2.05;1.55;;;;;;;14.24;77.48;102107.41;4951165;28;20066;-64
2022/07/28 04:12:19;;;;;;;5.40;2.03;;;;;;;14.26;77.38;102105.56;4966535;28;20033;-64
2022/07/28 04:14:44;;;;;;;4.72;1.40;;;;;;;14.28;77.32;102109.06;4966281;28;20042;-64
2022/07/28 04:17:09;;;;;;;4.20;1.30;;;;;;;14.25;77.43;102112.66;4965872;28;20085;-64
2022/07/28 04:19:35;;;;;;;6.57;1.83;;;;;;;14.23;77.54;102111.84;4967050;28;20114;-66
2022/07/28 04:22:00;;;;;;;6.30;1.63;;;;;;;14.13;77.57;102110.38;4966823;28;20106;-65
2022/07/28 04:24:25;;;;;;;4.38;1.65;;;;;;;14.10;77.99;102107.78;4965811;28;20500;-65
2022/07/28 04:26:51;;;;;;;4.00;1.63;;;;;;;14.09;77.82;102114.88;4965946;28;20489;-66
2022/07/28 04:29:16;;;;;;;6.07;1.60;;;;;;;13.95;78.46;102117.94;4966593;28;20544;-65
2022/07/28 04:31:41;;;;;;;8.77;1.80;;;;;;;14.07;78.19;102121.13;4965792;28;20031;-65
2022/07/28 04:34:07;;;;;;;6.47;1.75;;;;;;;14.11;77.81;102114.81;4966953;28;20054;-67
2022/07/28 04:36:36;;;;;;;5.25;1.83;;;;;;;14.10;78.29;102113.97;4966762;28;20138;-65
2022/07/28 04:39:02;;;;;;;5.95;2.33;;;;;;;14.13;78.22;102115.66;4965794;28;20359;-65
2022/07/28 04:41:27;;;;;;;5.07;1.83;;;;;;;14.14;78.25;102118.28;4965639;28;20082;-66
2022/07/28 04:43:52;;;;;;;2.00;1.40;;;;;;;14.22;78.17;102112.75;4965080;28;20069;-65
2022/07/28 04:46:18;;;;;;;2.53;1.85;;;;;;;14.33;77.59;102109.78;4965861;28;20081;-66
2022/07/28 04:48:44;;;;;;;7.65;2.17;;;;;;;14.33;77.71;102111.56;4965666;28;20081;-67
2022/07/28 04:51:09;;;;;;;3.45;1.55;;;;;;;14.37;77.64;102108.78;4964965;28;20069;-64
2022/07/28 04:53:35;;;;;;;1.63;1.52;;;;;;;14.55;77.14;102106.50;4966238;28;20019;-66
2022/07/28 04:56:00;;;;;;;2.25;1.50;;;;;;;14.65;76.74;102105.28;4965478;28;20027;-67
2022/07/28 04:58:26;;;;;;;3.47;1.98;;;;;;;14.58;76.64;102105.53;4965159;28;20542;-65
2022/07/28 05:00:52;;;;;;;7.72;1.85;;;;;;;14.55;77.03;102109.16;4964718;28;20029;-66
2022/07/28 05:03:18;;;;;;;7.57;2.05;;;;;;;14.60;76.76;102109.84;4965437;28;20026;-65
2022/07/28 05:05:43;;;;;;;4.70;1.70;;;;;;;14.63;76.65;102107.13;4964972;28;20042;-67
2022/07/28 05:08:08;;;;;;;4.53;1.77;;;;;;;14.76;76.44;102115.59;4965663;28;20125;-65
2022/07/28 05:10:34;;;;;;;2.22;1.67;;;;;;;14.75;76.31;102110.31;4964625;28;20106;-66
2022/07/28 05:13:04;;;;;;;4.72;2.17;;;;;;;14.74;76.42;102112.09;4965926;28;20058;-64
2022/07/28 05:15:30;;;;;;;4.53;1.60;;;;;;;14.61;76.44;102106.31;4965960;28;20111;-64
2022/07/28 05:17:55;;;;;;;3.17;1.63;;;;;;;14.72;76.23;102113.06;4966347;28;20052;-66
2022/07/28 05:20:20;;;;;;;5.50;1.98;;;;;;;14.75;75.68;102116.47;4965273;28;20029;-67
2022/07/28 05:22:49;;;;;;;5.28;1.70;;;;;;;14.90;75.45;102111.66;4964227;28;20026;-64
2022/07/28 05:25:19;;;;;;;4.03;1.40;;;;;;;15.09;75.29;102111.94;4964614;28;20031;-66
2022/07/28 05:27:46;;;;;;;6.63;1.77;;;;;;;15.06;74.84;102114.69;4965438;28;20033;-64
2022/07/28 05:30:11;;;;;;;5.40;1.80;;;;;;;15.01;75.04;102114.81;4966214;28;20082;-65
2022/07/28 05:32:37;;;;;;;5.55;1.80;;;;;;;15.06;74.88;102114.69;4965721;28;20030;-65
2022/07/28 05:35:03;;;;;;;7.20;2.15;;;;;;;15.10;74.97;102113.66;4948663;28;20113;-65
2022/07/28 05:37:28;;;;;;;5.20;1.83;;;;;;;15.13;75.28;102118.88;4948307;28;20105;-65
2022/07/28 05:39:54;;;;;;;5.22;1.80;;;;;;;15.11;75.16;102111.88;4947966;28;20026;-64
2022/07/28 05:42:19;;;;;;;8.27;1.70;;;;;;;15.21;74.68;102115.97;4965876;28;20062;-65
2022/07/28 05:44:44;;;;;;;5.60;1.70;;;;;;;15.37;74.62;102111.00;4964428;28;20456;-66
2022/07/28 05:47:09;;;;;;;9.00;2.10;;;;;;;15.52;74.54;102109.59;4964203;28;20384;-64
2022/07/28 05:49:35;;;;;;;6.53;1.80;;;;;;;15.51;73.81;102107.00;4965255;28;20385;-64
2022/07/28 05:52:02;;;;;;;2.28;1.63;;;;;;;15.43;74.39;102106.38;4965936;28;20509;-65
2022/07/28 05:54:27;;;;;;;3.80;1.75;;;;;;;15.73;73.24;102106.25;4965430;28;20803;-65
2022/07/28 05:56:52;;;;;;;4.38;2.33;;;;;;;15.79;72.87;102106.03;4965089;28;20025;-66
2022/07/28 05:59:18;;;;;;;4.03;1.90;;;;;;;15.86;72.24;102106.69;4965050;28;20031;-65
2022/07/28 06:01:44;;;;;;;5.38;1.75;;;;;;;15.74;72.82;102108.00;4965414;28;20052;-65
2022/07/28 06:04:10;;;;;;;4.65;2.08;;;;;;;15.87;72.36;102106.59;4965152;28;20026;-65
2022/07/28 06:06:35;;;;;;;3.97;1.80;;;;;;;16.06;71.47;102108.63;4948563;28;20086;-66
2022/07/28 06:09:00;;;;;;;3.58;1.30;;;;;;;16.05;71.40;102104.25;4964563;28;20038;-66
2022/07/28 06:11:26;;;;;;;4.95;1.98;;;;;;;16.19;71.18;102109.03;4964348;28;20177;-65
2022/07/28 06:13:51;;;;;;;7.43;1.83;;;;;;;16.44;70.20;102109.91;4964712;28;20030;-66
2022/07/28 06:16:19;;;;;;;4.93;1.60;;;;;;;16.50;70.10;102113.19;4965287;28;20039;-65
2022/07/28 06:18:44;;;;;;;8.90;1.70;;;;;;;16.62;68.68;102109.16;4964635;28;20033;-66
2022/07/28 06:21:10;;;;;;;3.53;1.45;;;;;;;16.59;69.45;102117.31;4965903;28;20485;-67
2022/07/28 06:23:35;;;;;;;5.10;1.50;;;;;;;16.62;68.90;102117.16;4969149;28;20545;-65
2022/07/28 06:26:00;;;;;;;5.47;1.23;;;;;;;16.81;68.22;102111.13;4968669;28;20031;-67
2022/07/28 06:28:26;;;;;;;4.18;1.40;;;;;;;16.91;68.13;102117.81;4968489;28;20026;-68
2022/07/28 06:30:51;;;;;;;3.33;1.58;;;;;;;17.00;67.67;102116.56;4968985;28;20019;-69
2022/07/28 06:33:17;;;;;;;2.50;1.17;;;;;;;17.17;66.82;102117.69;4968118;28;20030;-67
2022/07/28 06:35:43;;;;;;;7.13;1.92;;;;;;;17.10;67.54;102113.56;4968939;28;20038;-67
2022/07/28 06:38:08;;;;;;;4.03;1.15;;;;;;;16.90;67.93;102109.88;4967660;28;20027;-67
2022/07/28 06:40:34;;;;;;;5.22;1.38;;;;;;;16.84;67.71;102110.13;4967422;28;20035;-67
2022/07/28 06:42:59;;;;;;;8.52;1.48;;;;;;;16.70;67.52;102105.38;4967424;28;20022;-67
2022/07/28 06:45:25;;;;;;;6.35;1.67;;;;;;;16.91;67.27;102107.16;4968299;28;20105;-69
2022/07/28 06:47:51;;;;;;;6.05;1.52;;;;;;;17.07;66.89;102101.25;4968918;28;20018;-68
2022/07/28 06:50:16;;;;;;;6.45;1.20;;;;;;;17.07;66.82;102106.56;4967947;28;20031;-67
2022/07/28 06:52:41;;;;;;;7.35;1.50;;;;;;;17.25;66.16;102104.91;4967896;28;20448;-66
2022/07/28 06:55:07;;;;;;;6.18;1.50;;;;;;;17.17;65.85;102105.25;4968044;28;20523;-69
2022/07/28 06:57:33;;;;;;;5.00;1.50;;;;;;;17.14;65.34;102112.50;4967908;28;20123;-68
2022/07/28 06:59:59;;;;;;;6.65;1.08;;;;;;;16.97;66.06;102108.69;4967763;28;20054;-69
2022/07/28 07:02:24;;;;;;;5.25;1.45;;;;;;;17.22;65.79;102117.50;4967724;28;20101;-68
2022/07/28 07:04:50;;;;;;;4.03;1.20;;;;;;;17.28;65.87;102111.94;4963292;28;20026;-68
2022/07/28 07:07:16;;;;;;;4.40;1.05;;;;;;;17.37;64.94;102110.66;4957745;28;20245;-67
2022/07/28 07:09:41;;;;;;;4.30;1.25;;;;;;;17.62;64.37;102112.28;4943528;28;20332;-67
2022/07/28 07:12:06;;;;;;;3.10;1.17;;;;;;;17.52;63.79;102109.16;4947620;28;20024;-69
2022/07/28 07:14:32;;;;;;;2.38;1.02;;;;;;;17.59;62.96;102107.94;4947120;28;20035;-68
2022/07/28 07:16:57;;;;;;;3.63;1.02;;;;;;;17.87;62.73;102104.06;4948739;28;20546;-67
2022/07/28 07:19:22;;;;;;;6.75;1.77;;;;;;;18.10;60.97;102101.28;4947855;28;20565;-65
2022/07/28 07:21:48;;;;;;;6.10;1.17;;;;;;;18.06;61.54;102101.41;4959378;28;20420;-70
2022/07/28 07:24:13;;;;;;;4.80;1.35;;;;;;;18.00;60.79;102098.19;4967785;28;20027;-68
2022/07/28 07:26:38;;;;;;;7.32;1.40;;;;;;;18.15;59.99;102100.16;4967226;28;20118;-67
2022/07/28 07:29:05;;;;;;;5.82;1.02;;;;;;;18.19;60.27;102093.75;4946765;28;20035;-69
2022/07/28 07:31:34;;;;;;;5.88;1.10;;;;;;;18.30;60.42;102095.91;4947794;28;20035;-68
2022/07/28 07:33:59;;;;;;;4.40;1.00;;;;;;;18.53;59.54;102095.75;4946015;28;20023;-68
2022/07/28 07:36:25;;;;;;;6.25;1.27;;;;;;;18.74;59.37;102095.66;4945442;28;20366;-67
2022/07/28 07:38:50;;;;;;;5.25;1.50;;;;;;;18.68;59.07;102094.16;4947959;28;20429;-67
2022/07/28 07:41:16;;;;;;;6.95;1.55;;;;;;;18.81;59.64;102089.94;4944253;29;20474;-66
2022/07/28 07:43:42;;;;;;;6.50;1.30;;;;;;;18.83;58.62;102092.53;4941452;28;20035;-68
2022/07/28 07:46:07;;;;;;;5.65;1.20;;;;;;;18.91;58.79;102087.69;4942230;28;20028;-66
2022/07/28 07:48:32;;;;;;;2.80;1.13;;;;;;;18.90;59.02;102090.47;4939591;28;20110;-69
2022/07/28 07:50:58;;;;;;;8.82;1.35;;;;;;;19.23;57.12;102081.69;4933918;29;20123;-67
2022/07/28 07:53:23;;;;;;;2.40;1.25;;;;;;;19.53;55.63;102085.53;4930129;28;20126;-67
2022/07/28 07:55:50;;;;;;;3.05;1.23;;;;;;;19.51;55.21;102082.09;4963785;28;20320;-68
2022/07/28 07:58:16;;;;;;;4.57;1.00;;;;;;;19.49;54.97;102083.97;4962634;28;20066;-68
2022/07/28 08:00:42;;;;;;;3.28;1.30;;;;;;;19.61;55.29;102082.47;4948156;28;20058;-67
2022/07/28 08:03:07;;;;;;;4.57;1.40;;;;;;;19.93;54.50;102077.22;4945463;29;20483;-65
2022/07/28 08:05:32;;;;;;;4.43;1.17;;;;;;;19.95;53.06;102086.00;4945971;29;20505;-67
2022/07/28 08:07:58;;;;;;;2.95;1.10;;;;;;;20.00;53.25;102080.41;4948000;29;20060;-67
2022/07/28 08:10:23;;;;;;;4.75;0.90;;;;;;;20.29;52.23;102092.19;4955712;28;20564;-67
2022/07/28 08:12:48;;;;;;;4.00;1.35;;;;;;;19.97;51.26;102088.59;4966824;28;20101;-69
2022/07/28 08:15:14;;;;;;;2.92;1.00;;;;;;;19.93;51.46;102078.06;4966135;28;20033;-69
2022/07/28 08:17:39;;;;;;;4.78;1.20;;;;;;;20.03;50.94;102085.63;4965864;28;20049;-68
2022/07/28 08:20:05;;;;;;;4.20;0.93;;;;;;;19.75;51.68;102087.09;4966962;28;20015;-67
2022/07/28 08:22:30;;;;;;;4.07;1.02;;;;;;;19.50;51.94;102085.72;4966196;28;20039;-67
2022/07/28 08:24:58;;;;;;;2.40;0.65;;;;;;;19.43;52.04;102083.34;4978259;28;20029;-67
2022/07/28 08:27:24;;;;;;;4.75;1.05;;;;;;;19.82;51.57;102075.97;4966259;28;20042;-68
2022/07/28 08:29:49;;;;;;;8.35;1.20;;;;;;;20.04;51.00;102073.97;4965826;28;20035;-69
2022/07/28 08:32:14;;;;;;;2.47;1.00;;;;;;;20.22;50.60;102072.09;4965108;28;20027;-68
2022/07/28 08:34:39;;;;;;;2.17;0.93;;;;;;;20.29;49.06;102075.31;4965868;28;20045;-69
2022/07/28 08:37:05;;;;;;;2.53;1.08;;;;;;;20.31;49.09;102078.75;4966449;28;20034;-66
2022/07/28 08:39:31;;;;;;;5.03;0.82;;;;;;;20.17;49.13;102076.84;4964516;28;20027;-68
2022/07/28 08:42:17;;;;;;;3.20;1.10;;;;;;;20.24;49.50;102080.91;4966403;28;20097;-69
2022/07/28 08:44:51;;;;;;;2.75;0.90;;;;;;;20.29;48.93;102080.66;4948509;28;20035;-69
2022/07/28 08:47:18;;;;;;;3.05;1.10;;;;;;;20.51;48.92;102074.97;4947301;28;20019;-68
2022/07/28 08:49:44;;;;;;;7.15;1.17;;;;;;;20.89;47.84;102078.19;4961922;28;20023;-68
2022/07/28 08:52:11;;;;;;;3.97;0.90;;;;;;;21.16;47.05;102080.22;4955855;28;20035;-67
2022/07/28 08:54:40;;;;;;;4.03;1.05;;;;;;;21.23;45.59;102076.22;4984905;28;20030;-68
2022/07/28 08:57:06;;;;;;;4.75;1.30;;;;;;;21.29;46.25;102081.22;4984747;28;20105;-68
2022/07/28 08:59:32;;;;;;;2.30;1.13;;;;;;;21.39;47.18;102070.78;4984228;28;20011;-69
2022/07/28 09:01:57;;;;;;;4.68;0.90;;;;;;;21.64;46.38;102069.28;4980540;28;20093;-68
2022/07/28 09:04:23;;;;;;;5.82;0.95;;;;;;;21.43;46.84;102068.81;4964749;28;20247;-66
2022/07/28 09:06:49;;;;;;;5.70;1.20;;;;;;;21.59;46.66;102074.94;4947760;28;20223;-68
2022/07/28 09:09:14;;;;;;;7.63;1.13;;;;;;;21.21;45.33;102073.63;4964637;28;20054;-69
2022/07/28 09:11:39;;;;;;;4.22;1.10;;;;;;;21.44;44.90;102074.06;4945913;28;20092;-68
2022/07/28 09:14:05;;;;;;;5.80;1.02;;;;;;;21.63;44.98;102070.25;4965636;28;20030;-68
2022/07/28 09:16:31;;;;;;;3.33;0.90;;;;;;;21.62;45.20;102071.22;4946430;28;20027;-67
2022/07/28 09:18:56;;;;;;;3.50;1.08;;;;;;;21.71;44.67;102075.16;4964829;28;20023;-68
2022/07/28 09:21:22;;;;;;;3.85;0.80;;;;;;;21.73;45.42;102070.53;4965071;28;20023;-69
2022/07/28 09:23:48;;;;;;;5.22;1.23;;;;;;;21.84;45.81;102065.41;4965692;28;20101;-68
2022/07/28 09:26:15;;;;;;;2.30;0.75;;;;;;;21.96;44.15;102074.50;4963586;28;20026;-67
2022/07/28 09:28:47;;;;;;;4.07;0.88;;;;;;;21.46;45.45;102068.59;4964828;28;20019;-68
2022/07/28 09:31:12;;;;;;;1.67;0.90;;;;;;;21.63;45.67;102070.25;4964040;28;20037;-69
2022/07/28 09:33:38;;;;;;;4.05;1.17;;;;;;;21.55;46.03;102069.88;4948040;28;20023;-67
2022/07/28 09:36:12;;;;;;;3.70;1.05;;;;;;;21.75;45.97;102070.44;4948066;28;20149;-69
2022/07/28 09:38:41;;;;;;;3.28;1.23;;;;;;;22.27;44.85;102058.25;4948970;28;20385;-69
2022/07/28 09:41:06;;;;;;;3.33;1.10;;;;;;;21.75;44.63;102055.25;4947434;28;20722;-68
2022/07/28 09:43:35;;;;;;;4.15;0.98;;;;;;;21.91;44.25;102057.81;4964733;28;20042;-68
2022/07/28 09:46:06;;;;;;;7.40;1.40;;;;;;;22.06;43.85;102055.13;4964681;28;20509;-67
2022/07/28 09:48:33;;;;;;;3.47;1.10;;;;;;;22.28;44.21;102051.06;4963779;28;20027;-69
2022/07/28 09:51:32;;;;;;;2.83;1.02;;;;;;;22.16;45.00;102048.22;4964060;28;20035;-68
2022/07/28 09:54:07;;;;;;;4.07;1.02;;;;;;;22.49;44.71;102051.50;4961717;28;20068;-68
2022/07/28 09:56:32;;;;;;;4.97;1.35;;;;;;;22.38;44.25;102052.19;4963184;28;20027;-66
2022/07/28 09:59:02;;;;;;;1.40;0.88;;;;;;;22.75;44.11;102056.97;4962276;28;20835;-66
2022/07/28 10:01:28;;;;;;;3.42;1.13;;;;;;;22.73;42.87;102048.16;4968583;28;20027;-67
2022/07/28 10:03:56;;;;;;;2.20;1.00;;;;;;;22.25;43.38;102045.91;4966649;28;20279;-70
2022/07/28 10:06:32;;;;;;;3.77;1.07;;;;;;;22.09;44.80;102041.50;4966286;28;20037;-69
2022/07/28 10:08:59;;;;;;;3.30;1.00;;;;;;;22.21;44.49;102040.72;4959052;28;20763;-68
2022/07/28 10:11:27;;;;;;;6.38;1.20;;;;;;;22.62;44.53;102034.56;4947253;29;20341;-68
2022/07/28 10:14:05;;;;;;;4.88;1.20;;;;;;;22.26;43.79;102031.50;4948350;29;20058;-68
2022/07/28 10:16:36;;;;;;;3.22;1.20;;;;;;;22.58;43.53;102025.88;4953633;28;20037;-68
2022/07/28 10:19:03;;;;;;;3.20;1.02;;;;;;;22.88;44.33;102027.47;4950247;28;20488;-68
2022/07/28 10:21:30;;;;;;;4.75;1.15;;;;;;;23.12;42.60;102013.31;4967561;28;20011;-68
2022/07/28 10:23:59;;;;;;;3.17;1.17;;;;;;;23.03;41.96;102009.41;4949324;28;20596;-67
2022/07/28 10:26:30;;;;;;;6.18;1.38;;;;;;;23.13;42.27;102004.28;4949206;28;20438;-69
2022/07/28 10:28:56;;;;;;;3.15;1.00;;;;;;;23.56;41.71;102003.13;4967413;28;20035;-68
2022/07/28 10:31:27;;;;;;;5.32;0.82;;;;;;;23.15;42.99;102009.53;4966596;28;20031;-69
2022/07/28 10:33:54;;;;;;;3.10;1.08;;;;;;;23.00;41.97;102011.47;4967923;28;20517;-68
2022/07/28 10:36:22;;;;;;;1.45;0.95;;;;;;;22.77;43.22;102000.44;4964537;28;20042;-68
2022/07/28 10:38:48;;;;;;;1.42;1.00;;;;;;;22.75;42.75;102016.69;4967073;28;20501;-65
2022/07/28 10:41:15;;;;;;;2.38;1.00;;;;;;;22.94;43.10;102013.59;4950168;28;20062;-68
2022/07/28 10:43:42;;;;;;;2.65;0.93;;;;;;;23.18;42.02;102010.19;4947867;28;20019;-68
2022/07/28 10:46:07;;;;;;;2.00;0.90;;;;;;;23.61;41.20;102000.09;4965441;28;20035;-67
2022/07/28 10:48:36;;;;;;;1.30;0.90;;;;;;;23.39;41.18;102009.66;4965912;28;20168;-68
2022/07/28 10:51:01;;;;;;;3.10;0.95;;;;;;;23.44;42.69;102003.97;4967185;28;20038;-67
2022/07/28 10:53:37;;;;;;;3.47;1.00;;;;;;;23.54;42.48;101991.59;4949172;28;20714;-66
2022/07/28 10:56:06;;;;;;;2.63;1.00;;;;;;;23.41;41.29;101991.59;4965597;28;20022;-67
2022/07/28 10:58:44;;;;;;;3.80;0.90;;;;;;;23.87;40.49;101997.34;4966632;28;20035;-69
2022/07/28 11:01:09;;;;;;;2.80;0.88;;;;;;;23.59;41.93;101994.81;4967867;28;20042;-68
2022/07/28 11:03:42;;;;;;;4.93;0.90;;;;;;;23.07;42.00;101994.81;4967951;28;20034;-69
2022/07/28 11:06:24;;;;;;;3.20;1.00;;;;;;;23.65;40.28;101996.22;4966615;28;20030;-68
2022/07/28 11:08:51;;;;;;;2.13;1.08;;;;;;;23.69;40.45;101994.16;4966350;28;20031;-69
2022/07/28 11:11:43;;;;;;;1.10;0.77;;;;;;;23.30;41.10;101991.50;4966862;28;20726;-68
2022/07/28 11:14:23;;;;;;;9.40;1.48;;;;;;;23.62;40.85;101993.72;4967889;28;20042;-68
2022/07/28 11:16:50;;;;;;;13.00;2.08;;;;;;;23.78;40.05;101992.66;4967770;28;20061;-69
2022/07/28 11:19:17;;;;;;;7.40;1.35;;;;;;;24.18;41.85;101991.56;4950414;28;20192;-69
2022/07/28 11:22:18;;;;;;;3.97;1.00;;;;;;;24.02;39.23;101981.06;4950506;28;20057;-68
2022/07/28 11:24:55;;;;;;;3.00;0.90;;;;;;;23.60;39.65;101979.56;4952458;28;20070;-68
2022/07/28 11:27:44;;;;;;;1.63;0.80;;;;;;;23.73;40.85;101979.53;4967683;28;20138;-68
2022/07/28 11:30:30;;;;;;;1.15;1.00;;;;;;;23.66;41.49;101979.09;4966567;28;20571;-69